Shinkomaru No.18 — JD3625 — position and weather

sailwx.info

Track history (hours):
 
Tides and Currents Weather Stations Pressure Air Temp Water Temp Dewpoint Dewpoint Depression Visibility Wind Speed Wind Dir Waves Ship Positions

Shinkomaru No.18

Last reported at 2018-Jan-23 01:26 UTC. Time now 2018-Jan-23 05:58 UTC.
Position N 34°45' E 136°47'.

Length 82 m.

Type: Cargo ship. MMSI: 431005083.

Date/timePositionNaut miles runAvg speedWind from/ knotsBaromVisibWave heightAir tempDewpointWater temp
2018-Jan-23 01:26N 34°45' E 136°47'511.8
2018-Jan-23 01:01N 34°50' E 136°46'611.7
2018-Jan-23 00:31N 34°56' E 136°46'611.0
2018-Jan-23 00:01N 35°00' E 136°50'5 9.4
2018-Jan-22 23:30N 35°05' E 136°52'0 0.0
2018-Jan-22 23:00N 35°05' E 136°52'0 0.0
2018-Jan-22 22:31N 35°05' E 136°52'0 0.0
2018-Jan-22 22:00N 35°05' E 136°52'0 0.0
2018-Jan-22 21:30N 35°05' E 136°52'0 0.0
2018-Jan-22 21:01N 35°05' E 136°52'0 0.0
2018-Jan-22 20:31N 35°05' E 136°52'0 0.0
2018-Jan-22 20:01N 35°05' E 136°52'0 0.0
2018-Jan-22 19:31N 35°05' E 136°52'0 0.0
2018-Jan-22 19:00N 35°05' E 136°52'0 0.0
2018-Jan-22 18:30N 35°05' E 136°52'0 0.0
2018-Jan-22 18:01N 35°05' E 136°52'0 0.0
2018-Jan-22 17:31N 35°05' E 136°52'0 0.0
2018-Jan-22 17:00N 35°05' E 136°52'0 0.0
2018-Jan-22 16:31N 35°05' E 136°52'0 0.1
2018-Jan-22 16:01N 35°05' E 136°53'0 0.0
2018-Jan-22 15:30N 35°05' E 136°53'0 0.0
2018-Jan-22 15:00N 35°05' E 136°53'0 0.1
2018-Jan-22 14:31N 35°05' E 136°52'0 0.0
2018-Jan-22 14:01N 35°05' E 136°52'1 2.6
2018-Jan-22 13:30N 35°03' E 136°52'1 3.0
2018-Jan-22 13:01N 35°02' E 136°52'0 0.0
2018-Jan-22 12:30N 35°02' E 136°52'0 0.1
2018-Jan-22 11:59N 35°02' E 136°52'0 0.1
2018-Jan-22 11:30N 35°02' E 136°52'0 0.0
2018-Jan-22 11:00N 35°02' E 136°52'0 0.0
2018-Jan-22 10:31N 35°02' E 136°52'0 0.0
2018-Jan-22 10:00N 35°02' E 136°52'0 0.0
2018-Jan-22 09:30N 35°02' E 136°52'0 0.0
2018-Jan-22 09:00N 35°02' E 136°52'0 0.0
2018-Jan-22 08:30N 35°02' E 136°52'0 0.0
2018-Jan-22 08:00N 35°02' E 136°52'0 0.0
2018-Jan-22 07:31N 35°02' E 136°52'0 0.1
2018-Jan-22 07:00N 35°02' E 136°52'0 0.1
2018-Jan-22 06:31N 35°02' E 136°52'0 0.0
2018-Jan-22 05:59N 35°02' E 136°52'0 0.0
2018-Jan-22 05:30N 35°02' E 136°52'0 0.0
2018-Jan-22 04:58N 35°02' E 136°52'0 0.0
2018-Jan-22 04:31N 35°02' E 136°52'0 0.0
2018-Jan-22 04:01N 35°02' E 136°52'0 0.0
2018-Jan-22 03:31N 35°02' E 136°52'0 0.0
2018-Jan-22 03:00N 35°02' E 136°52'0 0.1
2018-Jan-22 02:31N 35°02' E 136°52'0 0.1
2018-Jan-22 02:01N 35°02' E 136°52'0 0.0
2018-Jan-22 01:30N 35°02' E 136°52'0 0.0
2018-Jan-22 01:01N 35°02' E 136°52'0 0.1
2018-Jan-22 00:31N 35°02' E 136°52'0 0.1
2018-Jan-22 00:00N 35°02' E 136°52'0 0.0
2018-Jan-21 23:31N 35°02' E 136°52'0 0.0
2018-Jan-21 23:01N 35°02' E 136°52'0 0.2
2018-Jan-21 22:31N 35°02' E 136°52'4 7.0
2018-Jan-21 22:00N 34°59' E 136°49'4 7.2
2018-Jan-21 21:31N 34°57' E 136°45'0 0.0
2018-Jan-21 20:59N 34°57' E 136°45'0 0.0
2018-Jan-21 20:29N 34°57' E 136°45'0 0.0
2018-Jan-21 20:00N 34°57' E 136°45'0 0.0
2018-Jan-21 19:30N 34°57' E 136°45'0 0.0
2018-Jan-21 19:01N 34°57' E 136°45'0 0.0
2018-Jan-21 18:30N 34°57' E 136°45'0 0.0
2018-Jan-21 18:00N 34°57' E 136°45'0 0.0
2018-Jan-21 17:30N 34°57' E 136°45'0 0.1
2018-Jan-21 17:00N 34°57' E 136°45'0 0.0
2018-Jan-21 16:30N 34°57' E 136°45'0 0.0
2018-Jan-21 16:00N 34°57' E 136°45'0 0.0
2018-Jan-21 15:30N 34°57' E 136°45'0 0.0
2018-Jan-21 15:01N 34°57' E 136°45'0 0.0
2018-Jan-21 14:30N 34°57' E 136°45'1 1.3
2018-Jan-21 14:01N 34°57' E 136°46'3 5.8
2018-Jan-21 13:30N 34°54' E 136°47'78 9.4
2018-Jan-21 05:11N 34°33' E 138°18'910.5
2018-Jan-21 04:19N 34°34' E 138°29'411.7
2018-Jan-21 03:57N 34°34' E 138°35'1611.5
2018-Jan-21 02:31N 34°35' E 138°55'0 8.7
2018-Jan-21 02:30N 34°35' E 138°55'810.3
2018-Jan-21 01:43N 34°40' E 139°02'310.2
2018-Jan-21 01:28N 34°42' E 139°05'5 9.9
2018-Jan-21 00:55N 34°45' E 139°10'2010.3
2018-Jan-20 23:02N 34°58' E 139°28'111.6
2018-Jan-20 22:57N 34°58' E 139°29'511.5
2018-Jan-20 22:31N 35°02' E 139°34'612.1
2018-Jan-20 21:59N 35°06' E 139°40'612.0
2018-Jan-20 21:30N 35°10' E 139°45'611.3
2018-Jan-20 21:00N 35°16' E 139°46'611.3
2018-Jan-20 20:31N 35°20' E 139°43'510.5
2018-Jan-20 20:00N 35°25' E 139°45'611.1
2018-Jan-20 19:30N 35°23' E 139°51'2 3.1
2018-Jan-20 19:00N 35°22' E 139°52'0 0.0
2018-Jan-20 18:30N 35°22' E 139°52'0 0.0
2018-Jan-20 17:59N 35°22' E 139°52'0 0.0
2018-Jan-20 17:30N 35°22' E 139°52'0 0.0
2018-Jan-20 17:00N 35°22' E 139°52'0 0.0
2018-Jan-20 16:31N 35°22' E 139°52'0 0.0
2018-Jan-20 16:00N 35°22' E 139°52'0 0.0
2018-Jan-20 15:31N 35°22' E 139°52'0 0.0
2018-Jan-20 15:01N 35°22' E 139°52'0 0.0
2018-Jan-20 14:31N 35°22' E 139°52'0 0.0
2018-Jan-20 14:01N 35°22' E 139°52'0 0.0
2018-Jan-20 13:30N 35°22' E 139°52'0 0.0
2018-Jan-20 13:00N 35°22' E 139°52'0 0.0
2018-Jan-20 12:29N 35°22' E 139°52'0 0.0
2018-Jan-20 12:00N 35°22' E 139°52'0 0.0
2018-Jan-20 11:31N 35°22' E 139°52'0 0.2
2018-Jan-20 11:00N 35°22' E 139°52'4 8.0
2018-Jan-20 10:30N 35°23' E 139°48'5 9.7
2018-Jan-20 10:00N 35°20' E 139°44'610.6
2018-Jan-20 09:29N 35°14' E 139°47'511.4
2018-Jan-20 09:01N 35°09' E 139°46'711.2
2018-Jan-20 08:25N 35°03' E 139°42'511.6
2018-Jan-20 08:00N 34°60' E 139°38'2012.1
2018-Jan-20 06:22N 34°48' E 139°19'412.2
2018-Jan-20 06:00N 34°46' E 139°14'712.5
2018-Jan-20 05:26N 34°42' E 139°07'511.9
2018-Jan-20 04:59N 34°38' E 139°02'611.4
2018-Jan-20 04:30N 34°35' E 138°56'510.7
2018-Jan-20 04:01N 34°35' E 138°50'610.4
2018-Jan-20 03:29N 34°34' E 138°43'610.5
2018-Jan-20 02:54N 34°32' E 138°36'2411.3
2018-Jan-20 00:45N 34°30' E 138°07'157 9.7
2018-Jan-19 08:31N 33°50' E 135°03'111.4
2018-Jan-19 08:26N 33°51' E 135°02'611.8
2018-Jan-19 07:54N 33°55' E 134°57'611.5
2018-Jan-19 07:22N 33°60' E 134°52'411.4
2018-Jan-19 07:00N 34°03' E 134°49'711.7
2018-Jan-19 06:24N 34°09' E 134°44'513.1
2018-Jan-19 06:00N 34°13' E 134°40'711.8
2018-Jan-19 05:26N 34°17' E 134°34'511.3
2018-Jan-19 04:58N 34°19' E 134°27'511.6
2018-Jan-19 04:30N 34°21' E 134°22'1 0.1
2018-Jan-18 07:40N 34°21' E 134°23'211.7
2018-Jan-18 07:28N 34°20' E 134°26'1111.6
2018-Jan-18 06:29N 34°15' E 134°38'10 9.6
2018-Jan-18 05:23N 34°12' E 134°50'512.0
2018-Jan-18 05:00N 34°12' E 134°56'612.1
2018-Jan-18 04:30N 34°13' E 135°03'4 8.9
2018-Jan-18 04:00N 34°13' E 135°08'0 0.0
2018-Jan-18 03:30N 34°13' E 135°08'0 0.0
2018-Jan-18 03:00N 34°13' E 135°08'0 0.0
2018-Jan-18 02:30N 34°13' E 135°08'0 0.0
2018-Jan-18 02:00N 34°13' E 135°08'0 0.0
2018-Jan-18 01:30N 34°13' E 135°08'0 0.0
2018-Jan-18 01:00N 34°13' E 135°08'0 0.0
2018-Jan-17 23:59N 34°13' E 135°08'0 0.2
2018-Jan-17 23:57N 34°13' E 135°08'  
Track history (hours):
 
Tides and Currents Weather Stations Pressure Air Temp Water Temp Dewpoint Dewpoint Depression Visibility Wind Speed Wind Dir Waves Ship Positions

Shinkomaru No.18

Last reported at 2018-Jan-23 01:26 UTC. Time now 2018-Jan-23 05:58 UTC.
Position N 34°45' E 136°47'.

Length 82 m.

Type: Cargo ship. MMSI: 431005083.

Date/timePositionNaut miles runAvg speedWind from/ knotsBaromVisibWave heightAir tempDewpointWater temp
2018-Jan-23 01:26N 34°45' E 136°47'511.8
2018-Jan-23 01:01N 34°50' E 136°46'611.7
2018-Jan-23 00:31N 34°56' E 136°46'611.0
2018-Jan-23 00:01N 35°00' E 136°50'5 9.4
2018-Jan-22 23:30N 35°05' E 136°52'0 0.0
2018-Jan-22 23:00N 35°05' E 136°52'0 0.0
2018-Jan-22 22:31N 35°05' E 136°52'0 0.0
2018-Jan-22 22:00N 35°05' E 136°52'0 0.0
2018-Jan-22 21:30N 35°05' E 136°52'0 0.0
2018-Jan-22 21:01N 35°05' E 136°52'0 0.0
2018-Jan-22 20:31N 35°05' E 136°52'0 0.0
2018-Jan-22 20:01N 35°05' E 136°52'0 0.0
2018-Jan-22 19:31N 35°05' E 136°52'0 0.0
2018-Jan-22 19:00N 35°05' E 136°52'0 0.0
2018-Jan-22 18:30N 35°05' E 136°52'0 0.0
2018-Jan-22 18:01N 35°05' E 136°52'0 0.0
2018-Jan-22 17:31N 35°05' E 136°52'0 0.0
2018-Jan-22 17:00N 35°05' E 136°52'0 0.0
2018-Jan-22 16:31N 35°05' E 136°52'0 0.1
2018-Jan-22 16:01N 35°05' E 136°53'0 0.0
2018-Jan-22 15:30N 35°05' E 136°53'0 0.0
2018-Jan-22 15:00N 35°05' E 136°53'0 0.1
2018-Jan-22 14:31N 35°05' E 136°52'0 0.0
2018-Jan-22 14:01N 35°05' E 136°52'1 2.6
2018-Jan-22 13:30N 35°03' E 136°52'1 3.0
2018-Jan-22 13:01N 35°02' E 136°52'0 0.0
2018-Jan-22 12:30N 35°02' E 136°52'0 0.1
2018-Jan-22 11:59N 35°02' E 136°52'0 0.1
2018-Jan-22 11:30N 35°02' E 136°52'0 0.0
2018-Jan-22 11:00N 35°02' E 136°52'0 0.0
2018-Jan-22 10:31N 35°02' E 136°52'0 0.0
2018-Jan-22 10:00N 35°02' E 136°52'0 0.0
2018-Jan-22 09:30N 35°02' E 136°52'0 0.0
2018-Jan-22 09:00N 35°02' E 136°52'0 0.0
2018-Jan-22 08:30N 35°02' E 136°52'0 0.0
2018-Jan-22 08:00N 35°02' E 136°52'0 0.0
2018-Jan-22 07:31N 35°02' E 136°52'0 0.1
2018-Jan-22 07:00N 35°02' E 136°52'0 0.1
2018-Jan-22 06:31N 35°02' E 136°52'0 0.0
2018-Jan-22 05:59N 35°02' E 136°52'0 0.0
2018-Jan-22 05:30N 35°02' E 136°52'0 0.0
2018-Jan-22 04:58N 35°02' E 136°52'0 0.0
2018-Jan-22 04:31N 35°02' E 136°52'0 0.0
2018-Jan-22 04:01N 35°02' E 136°52'0 0.0
2018-Jan-22 03:31N 35°02' E 136°52'0 0.0
2018-Jan-22 03:00N 35°02' E 136°52'0 0.1
2018-Jan-22 02:31N 35°02' E 136°52'0 0.1
2018-Jan-22 02:01N 35°02' E 136°52'0 0.0
2018-Jan-22 01:30N 35°02' E 136°52'0 0.0
2018-Jan-22 01:01N 35°02' E 136°52'0 0.1
2018-Jan-22 00:31N 35°02' E 136°52'0 0.1
2018-Jan-22 00:00N 35°02' E 136°52'0 0.0
2018-Jan-21 23:31N 35°02' E 136°52'0 0.0
2018-Jan-21 23:01N 35°02' E 136°52'0 0.2
2018-Jan-21 22:31N 35°02' E 136°52'4 7.0
2018-Jan-21 22:00N 34°59' E 136°49'4 7.2
2018-Jan-21 21:31N 34°57' E 136°45'0 0.0
2018-Jan-21 20:59N 34°57' E 136°45'0 0.0
2018-Jan-21 20:29N 34°57' E 136°45'0 0.0
2018-Jan-21 20:00N 34°57' E 136°45'0 0.0
2018-Jan-21 19:30N 34°57' E 136°45'0 0.0
2018-Jan-21 19:01N 34°57' E 136°45'0 0.0
2018-Jan-21 18:30N 34°57' E 136°45'0 0.0
2018-Jan-21 18:00N 34°57' E 136°45'0 0.0
2018-Jan-21 17:30N 34°57' E 136°45'0 0.1
2018-Jan-21 17:00N 34°57' E 136°45'0 0.0
2018-Jan-21 16:30N 34°57' E 136°45'0 0.0
2018-Jan-21 16:00N 34°57' E 136°45'0 0.0
2018-Jan-21 15:30N 34°57' E 136°45'0 0.0
2018-Jan-21 15:01N 34°57' E 136°45'0 0.0
2018-Jan-21 14:30N 34°57' E 136°45'1 1.3
2018-Jan-21 14:01N 34°57' E 136°46'3 5.8
2018-Jan-21 13:30N 34°54' E 136°47'78 9.4
2018-Jan-21 05:11N 34°33' E 138°18'910.5
2018-Jan-21 04:19N 34°34' E 138°29'411.7
2018-Jan-21 03:57N 34°34' E 138°35'1611.5
2018-Jan-21 02:31N 34°35' E 138°55'0 8.7
2018-Jan-21 02:30N 34°35' E 138°55'810.3
2018-Jan-21 01:43N 34°40' E 139°02'310.2
2018-Jan-21 01:28N 34°42' E 139°05'5 9.9
2018-Jan-21 00:55N 34°45' E 139°10'2010.3
2018-Jan-20 23:02N 34°58' E 139°28'111.6
2018-Jan-20 22:57N 34°58' E 139°29'511.5
2018-Jan-20 22:31N 35°02' E 139°34'612.1
2018-Jan-20 21:59N 35°06' E 139°40'612.0
2018-Jan-20 21:30N 35°10' E 139°45'611.3
2018-Jan-20 21:00N 35°16' E 139°46'611.3
2018-Jan-20 20:31N 35°20' E 139°43'510.5
2018-Jan-20 20:00N 35°25' E 139°45'611.1
2018-Jan-20 19:30N 35°23' E 139°51'2 3.1
2018-Jan-20 19:00N 35°22' E 139°52'0 0.0
2018-Jan-20 18:30N 35°22' E 139°52'0 0.0
2018-Jan-20 17:59N 35°22' E 139°52'0 0.0
2018-Jan-20 17:30N 35°22' E 139°52'0 0.0
2018-Jan-20 17:00N 35°22' E 139°52'0 0.0
2018-Jan-20 16:31N 35°22' E 139°52'0 0.0
2018-Jan-20 16:00N 35°22' E 139°52'0 0.0
2018-Jan-20 15:31N 35°22' E 139°52'0 0.0
2018-Jan-20 15:01N 35°22' E 139°52'0 0.0
2018-Jan-20 14:31N 35°22' E 139°52'0 0.0
2018-Jan-20 14:01N 35°22' E 139°52'0 0.0
2018-Jan-20 13:30N 35°22' E 139°52'0 0.0
2018-Jan-20 13:00N 35°22' E 139°52'0 0.0
2018-Jan-20 12:29N 35°22' E 139°52'0 0.0
2018-Jan-20 12:00N 35°22' E 139°52'0 0.0
2018-Jan-20 11:31N 35°22' E 139°52'0 0.2
2018-Jan-20 11:00N 35°22' E 139°52'4 8.0
2018-Jan-20 10:30N 35°23' E 139°48'5 9.7
2018-Jan-20 10:00N 35°20' E 139°44'610.6
2018-Jan-20 09:29N 35°14' E 139°47'511.4
2018-Jan-20 09:01N 35°09' E 139°46'711.2
2018-Jan-20 08:25N 35°03' E 139°42'511.6
2018-Jan-20 08:00N 34°60' E 139°38'2012.1
2018-Jan-20 06:22N 34°48' E 139°19'412.2
2018-Jan-20 06:00N 34°46' E 139°14'712.5
2018-Jan-20 05:26N 34°42' E 139°07'511.9
2018-Jan-20 04:59N 34°38' E 139°02'611.4
2018-Jan-20 04:30N 34°35' E 138°56'510.7
2018-Jan-20 04:01N 34°35' E 138°50'610.4
2018-Jan-20 03:29N 34°34' E 138°43'610.5
2018-Jan-20 02:54N 34°32' E 138°36'2411.3
2018-Jan-20 00:45N 34°30' E 138°07'157 9.7
2018-Jan-19 08:31N 33°50' E 135°03'111.4
2018-Jan-19 08:26N 33°51' E 135°02'611.8
2018-Jan-19 07:54N 33°55' E 134°57'611.5
2018-Jan-19 07:22N 33°60' E 134°52'411.4
2018-Jan-19 07:00N 34°03' E 134°49'711.7
2018-Jan-19 06:24N 34°09' E 134°44'513.1
2018-Jan-19 06:00N 34°13' E 134°40'711.8
2018-Jan-19 05:26N 34°17' E 134°34'511.3
2018-Jan-19 04:58N 34°19' E 134°27'511.6
2018-Jan-19 04:30N 34°21' E 134°22'1 0.1
2018-Jan-18 07:40N 34°21' E 134°23'211.7
2018-Jan-18 07:28N 34°20' E 134°26'1111.6
2018-Jan-18 06:29N 34°15' E 134°38'10 9.6
2018-Jan-18 05:23N 34°12' E 134°50'512.0
2018-Jan-18 05:00N 34°12' E 134°56'612.1
2018-Jan-18 04:30N 34°13' E 135°03'4 8.9
2018-Jan-18 04:00N 34°13' E 135°08'0 0.0
2018-Jan-18 03:30N 34°13' E 135°08'0 0.0
2018-Jan-18 03:00N 34°13' E 135°08'0 0.0
2018-Jan-18 02:30N 34°13' E 135°08'0 0.0
2018-Jan-18 02:00N 34°13' E 135°08'0 0.0
2018-Jan-18 01:30N 34°13' E 135°08'0 0.0
2018-Jan-18 01:00N 34°13' E 135°08'0 0.0
2018-Jan-17 23:59N 34°13' E 135°08'0 0.2
2018-Jan-17 23:57N 34°13' E 135°08'  

Dump ship's entire track history